createdAt,value
2023-09-15T00:00:37.909Z,100.00
2023-09-15T00:03:25.142Z,100.00
2023-09-15T00:05:52.415Z,100.00
2023-09-15T00:08:19.700Z,100.00
2023-09-15T00:10:47.617Z,100.00
2023-09-15T00:13:16.233Z,100.00
2023-09-15T00:15:43.378Z,100.00
2023-09-15T00:18:10.750Z,100.00
2023-09-15T00:20:37.778Z,100.00
2023-09-15T00:23:05.802Z,100.00
2023-09-15T00:25:33.740Z,100.00
2023-09-15T00:28:01.549Z,100.00
2023-09-15T00:30:29.213Z,100.00
2023-09-15T00:32:59.089Z,100.00
2023-09-15T00:35:29.076Z,100.00
2023-09-15T00:37:56.633Z,100.00
2023-09-15T00:40:26.165Z,100.00
2023-09-15T00:42:54.437Z,100.00
2023-09-15T00:45:23.480Z,100.00
2023-09-15T00:47:53.787Z,100.00
2023-09-15T00:50:27.805Z,100.00
2023-09-15T00:52:56.575Z,100.00
2023-09-15T00:55:25.695Z,100.00
2023-09-15T00:57:53.528Z,100.00
2023-09-15T01:00:21.052Z,100.00
2023-09-15T01:02:49.709Z,100.00
2023-09-15T01:05:22.222Z,100.00
2023-09-15T01:07:51.229Z,100.00
2023-09-15T01:10:20.251Z,100.00
2023-09-15T01:12:52.193Z,100.00
2023-09-15T01:15:41.664Z,100.00
2023-09-15T01:18:13.471Z,100.00
2023-09-15T01:21:10.127Z,100.00
2023-09-15T01:23:52.725Z,100.00
2023-09-15T01:26:28.914Z,100.00
2023-09-15T01:29:08.731Z,100.00
2023-09-15T01:31:36.018Z,100.00
2023-09-15T01:34:04.527Z,100.00
2023-09-15T01:36:31.489Z,100.00
2023-09-15T01:38:59.206Z,100.00
2023-09-15T01:41:26.188Z,100.00
2023-09-15T01:43:54.593Z,100.00
2023-09-15T01:46:25.560Z,100.00
2023-09-15T01:48:57.693Z,100.00
2023-09-15T01:51:26.925Z,100.00
2023-09-15T01:53:56.555Z,100.00
2023-09-15T01:56:27.846Z,100.00
2023-09-15T01:58:57.500Z,100.00
2023-09-15T02:01:24.770Z,100.00
2023-09-15T02:03:55.156Z,100.00
2023-09-15T02:06:23.675Z,100.00
2023-09-15T02:08:51.273Z,100.00
2023-09-15T02:11:19.586Z,100.00
2023-09-15T02:13:46.886Z,100.00
2023-09-15T02:16:14.040Z,100.00
2023-09-15T02:18:41.501Z,100.00
2023-09-15T02:21:08.435Z,100.00
2023-09-15T02:23:36.634Z,100.00
2023-09-15T02:26:05.323Z,100.00
2023-09-15T02:28:33.073Z,100.00
2023-09-15T02:31:00.173Z,100.00
2023-09-15T02:33:29.804Z,100.00
2023-09-15T02:35:56.819Z,100.00
2023-09-15T02:38:24.032Z,100.00
2023-09-15T02:40:51.123Z,100.00
2023-09-15T02:43:18.096Z,100.00
2023-09-15T02:45:45.632Z,100.00
2023-09-15T02:48:15.245Z,100.00
2023-09-15T02:50:45.200Z,100.00
2023-09-15T02:53:12.362Z,100.00
2023-09-15T02:55:39.738Z,100.00
2023-09-15T02:58:06.947Z,100.00
2023-09-15T03:00:35.151Z,100.00
2023-09-15T03:03:05.404Z,100.00
2023-09-15T03:05:35.512Z,100.00
2023-09-15T03:08:02.490Z,100.00
2023-09-15T03:10:32.544Z,100.00
2023-09-15T03:13:04.142Z,100.00
2023-09-15T03:15:31.826Z,100.00
2023-09-15T03:17:58.738Z,100.00
2023-09-15T03:20:25.992Z,100.00
2023-09-15T03:23:00.813Z,100.00
2023-09-15T03:25:28.089Z,100.00
2023-09-15T03:27:55.221Z,100.00
2023-09-15T03:30:22.700Z,100.00
2023-09-15T03:32:50.162Z,100.00
2023-09-15T03:35:17.654Z,100.00
2023-09-15T03:37:49.515Z,100.00
2023-09-15T03:40:20.060Z,100.00
2023-09-15T03:42:49.559Z,100.00
2023-09-15T03:45:17.135Z,100.00
2023-09-15T03:47:44.273Z,100.00
2023-09-15T03:50:12.495Z,100.00
2023-09-15T03:52:39.378Z,100.00
2023-09-15T03:55:07.522Z,100.00
2023-09-15T03:57:34.550Z,100.00
2023-09-15T04:00:04.894Z,100.00
2023-09-15T04:02:39.399Z,100.00
2023-09-15T04:05:07.028Z,100.00
2023-09-15T04:07:34.125Z,100.00
2023-09-15T04:10:04.029Z,100.00
2023-09-15T04:12:31.600Z,100.00
2023-09-15T04:15:01.120Z,100.00
2023-09-15T04:17:28.233Z,100.00
2023-09-15T04:19:55.542Z,100.00
2023-09-15T04:22:22.668Z,100.00
2023-09-15T04:24:50.024Z,100.00
2023-09-15T04:27:17.008Z,100.00
2023-09-15T04:29:52.425Z,100.00
2023-09-15T04:32:24.424Z,100.00
2023-09-15T04:34:55.056Z,100.00
2023-09-15T04:37:22.445Z,100.00
2023-09-15T04:39:51.345Z,100.00
2023-09-15T04:42:21.183Z,100.00
2023-09-15T04:44:50.150Z,100.00
2023-09-15T04:47:30.373Z,100.00
2023-09-15T04:49:59.757Z,100.00
2023-09-15T04:52:29.580Z,100.00
2023-09-15T04:54:57.409Z,100.00
2023-09-15T04:57:24.985Z,100.00
2023-09-15T04:59:54.503Z,100.00
2023-09-15T05:02:25.829Z,100.00
2023-09-15T05:04:54.739Z,100.00
2023-09-15T05:07:22.173Z,100.00
2023-09-15T05:09:50.055Z,100.00
2023-09-15T05:12:19.486Z,100.00
2023-09-15T05:14:46.913Z,100.00
2023-09-15T05:17:16.311Z,100.00
2023-09-15T05:19:44.114Z,100.00
2023-09-15T05:22:11.715Z,100.00
2023-09-15T05:24:39.153Z,100.00
2023-09-15T05:27:09.398Z,100.00
2023-09-15T05:29:37.361Z,100.00
2023-09-15T05:32:07.188Z,100.00
2023-09-15T05:34:35.046Z,100.00
2023-09-15T05:37:04.527Z,100.00
2023-09-15T05:39:34.721Z,100.00
2023-09-15T05:42:02.136Z,100.00
2023-09-15T05:44:29.415Z,100.00
2023-09-15T05:47:00.351Z,100.00
2023-09-15T05:49:30.455Z,100.00
2023-09-15T05:52:01.344Z,100.00
2023-09-15T05:54:28.861Z,100.00
2023-09-15T05:56:58.373Z,100.00
2023-09-15T05:59:25.688Z,100.00
2023-09-15T06:01:52.944Z,100.00
2023-09-15T06:04:20.349Z,100.00
2023-09-15T06:06:47.496Z,100.00
2023-09-15T06:09:17.620Z,100.00
2023-09-15T06:11:45.396Z,100.00
2023-09-15T06:14:12.955Z,100.00
2023-09-15T06:16:41.427Z,100.00
2023-09-15T06:19:09.257Z,100.00
2023-09-15T06:21:39.184Z,100.00
2023-09-15T06:24:06.560Z,100.00
2023-09-15T06:26:34.588Z,100.00
2023-09-15T06:29:02.182Z,100.00
2023-09-15T06:31:29.584Z,100.00
2023-09-15T06:33:56.940Z,100.00
2023-09-15T06:36:28.993Z,100.00
2023-09-15T06:38:58.943Z,100.00
2023-09-15T06:41:25.961Z,100.00
2023-09-15T06:43:56.135Z,82.52
2023-09-15T06:46:24.321Z,69.17
2023-09-15T06:48:51.846Z,67.98
2023-09-15T06:51:19.001Z,62.56
2023-09-15T06:53:46.721Z,58.89
2023-09-15T06:56:16.908Z,54.50
2023-09-15T06:58:44.560Z,50.01
2023-09-15T07:01:11.885Z,45.41
2023-09-15T07:03:40.596Z,44.89
2023-09-15T07:06:07.904Z,42.48
2023-09-15T07:08:37.901Z,42.06
2023-09-15T07:11:04.956Z,42.27
2023-09-15T07:13:32.433Z,43.28
2023-09-15T07:15:59.598Z,41.79
2023-09-15T07:18:27.649Z,41.15
2023-09-15T07:20:57.035Z,40.77
2023-09-15T07:23:24.553Z,39.04
2023-09-15T07:25:51.566Z,39.48
2023-09-15T07:28:18.932Z,41.18
2023-09-15T07:30:46.173Z,39.11
2023-09-15T07:33:13.529Z,38.17
2023-09-15T07:35:40.577Z,38.58
2023-09-15T07:38:08.101Z,37.31
2023-09-15T07:40:35.622Z,40.91
2023-09-15T07:43:03.468Z,38.36
2023-09-15T07:45:30.789Z,37.47
2023-09-15T07:47:58.175Z,38.01
2023-09-15T07:50:25.288Z,37.27
2023-09-15T07:52:52.885Z,39.46
2023-09-15T07:55:20.078Z,38.06
2023-09-15T07:57:47.553Z,37.81
2023-09-15T08:00:14.669Z,39.13
2023-09-15T08:02:44.261Z,38.30
2023-09-15T08:05:12.233Z,37.98
2023-09-15T08:07:41.645Z,38.02
2023-09-15T08:10:10.908Z,40.45
2023-09-15T08:12:40.288Z,38.72
2023-09-15T08:15:08.305Z,39.01
2023-09-15T08:17:36.060Z,38.45
2023-09-15T08:20:05.162Z,38.86
2023-09-15T08:22:34.728Z,37.16
2023-09-15T08:25:05.379Z,39.99
2023-09-15T08:27:36.246Z,38.41
2023-09-15T08:30:03.743Z,40.96
2023-09-15T08:32:33.083Z,40.62
2023-09-15T08:35:00.587Z,38.82
2023-09-15T08:37:28.576Z,38.44
2023-09-15T08:39:55.736Z,40.37
2023-09-15T08:42:30.779Z,42.92
2023-09-15T08:45:00.825Z,43.78
2023-09-15T08:47:33.194Z,42.66
2023-09-15T08:50:01.620Z,43.30
2023-09-15T08:52:29.752Z,45.14
2023-09-15T08:55:03.216Z,48.86
2023-09-15T08:57:31.638Z,48.14
2023-09-15T09:00:05.017Z,47.03
2023-09-15T09:02:33.998Z,46.59
2023-09-15T09:05:01.347Z,48.20
2023-09-15T09:07:29.230Z,46.20
2023-09-15T09:09:56.974Z,50.22
2023-09-15T09:12:24.469Z,46.22
2023-09-15T09:14:56.460Z,48.97
2023-09-15T09:17:24.301Z,51.30
2023-09-15T09:19:51.370Z,50.82
2023-09-15T09:22:19.154Z,50.20
2023-09-15T09:24:53.298Z,49.88
2023-09-15T09:27:22.966Z,50.41
2023-09-15T09:29:50.148Z,51.58
2023-09-15T09:32:17.506Z,51.42
2023-09-15T09:37:17.451Z,52.43
2023-09-15T09:39:47.252Z,54.31
2023-09-15T09:42:14.906Z,53.54
2023-09-15T09:44:42.347Z,53.70
2023-09-15T09:47:12.443Z,53.48
2023-09-15T09:49:42.948Z,54.89
2023-09-15T09:52:10.358Z,57.26
2023-09-15T09:54:37.337Z,56.60
2023-09-15T09:57:05.414Z,55.73
2023-09-15T09:59:32.390Z,54.66
2023-09-15T10:01:59.964Z,54.93
2023-09-15T10:04:27.127Z,54.34
2023-09-15T10:06:54.644Z,55.05
2023-09-15T10:09:21.952Z,57.09
2023-09-15T10:11:50.221Z,54.35
2023-09-15T10:14:25.354Z,53.28
2023-09-15T10:16:53.191Z,53.00
2023-09-15T10:19:22.427Z,56.78
2023-09-15T10:21:54.886Z,54.76
2023-09-15T10:24:24.288Z,55.45
2023-09-15T10:26:54.286Z,55.54
2023-09-15T10:29:30.449Z,54.22
2023-09-15T10:32:00.415Z,52.30
2023-09-15T10:34:27.432Z,54.42
2023-09-15T10:36:54.735Z,53.15
2023-09-15T10:39:22.010Z,52.52
2023-09-15T10:41:49.433Z,52.96
2023-09-15T10:44:16.476Z,52.74
2023-09-15T10:46:44.256Z,52.82
2023-09-15T10:49:21.658Z,54.59
2023-09-15T10:52:01.663Z,55.59
2023-09-15T10:54:33.073Z,55.10
2023-09-15T10:57:01.100Z,51.97
2023-09-15T10:59:28.436Z,54.81
2023-09-15T11:01:59.137Z,54.23
2023-09-15T11:04:29.099Z,51.22
2023-09-15T11:06:59.178Z,51.05
2023-09-15T11:09:31.267Z,52.59
2023-09-15T11:11:58.904Z,52.59
2023-09-15T11:14:28.309Z,51.92
2023-09-15T11:16:58.139Z,51.45
2023-09-15T11:19:31.704Z,50.76
2023-09-15T11:22:02.674Z,51.45
2023-09-15T11:24:30.363Z,51.21
2023-09-15T11:26:59.719Z,51.78
2023-09-15T11:29:27.422Z,52.92
2023-09-15T11:31:55.517Z,50.40
2023-09-15T11:34:25.568Z,51.04
2023-09-15T11:36:58.535Z,50.62
2023-09-15T11:39:30.128Z,50.41
2023-09-15T11:41:58.256Z,47.72
2023-09-15T11:44:26.724Z,48.86
2023-09-15T11:46:57.458Z,49.53
2023-09-15T11:49:27.403Z,51.10
2023-09-15T11:51:59.292Z,51.77
2023-09-15T11:54:27.211Z,51.21
2023-09-15T11:56:55.760Z,50.38
2023-09-15T11:59:23.090Z,51.75
2023-09-15T12:01:54.118Z,48.74
2023-09-15T12:04:24.788Z,51.23
2023-09-15T12:06:52.412Z,51.45
2023-09-15T12:09:22.543Z,49.68
2023-09-15T12:11:50.016Z,47.27
2023-09-15T12:14:17.163Z,48.05
2023-09-15T12:16:46.963Z,49.34
2023-09-15T12:19:14.320Z,48.53
2023-09-15T12:21:54.836Z,48.58
2023-09-15T12:24:23.308Z,48.60
2023-09-15T12:26:51.850Z,50.13
2023-09-15T12:29:20.166Z,49.60
2023-09-15T12:31:48.441Z,49.61
2023-09-15T12:34:21.093Z,51.04
2023-09-15T12:36:55.164Z,49.40
2023-09-15T12:39:22.454Z,50.52
2023-09-15T12:44:27.067Z,52.37
2023-09-15T12:46:54.436Z,52.34
2023-09-15T12:49:23.593Z,52.31
2023-09-15T12:51:51.067Z,51.36
2023-09-15T12:54:18.102Z,52.01
2023-09-15T12:56:45.494Z,53.78
2023-09-15T12:59:14.795Z,54.09
2023-09-15T13:01:42.093Z,54.62
2023-09-15T13:04:09.231Z,57.13
2023-09-15T13:06:39.370Z,56.60
2023-09-15T13:09:06.647Z,57.21
2023-09-15T13:11:34.154Z,57.61
2023-09-15T13:14:01.514Z,57.93
2023-09-15T13:16:28.890Z,57.29
2023-09-15T13:18:55.907Z,57.07
2023-09-15T13:21:23.915Z,55.87
2023-09-15T13:23:51.051Z,53.82
2023-09-15T13:26:20.735Z,54.20
2023-09-15T13:28:47.783Z,54.70
2023-09-15T13:31:15.457Z,54.05
2023-09-15T13:33:42.630Z,56.32
2023-09-15T13:36:10.855Z,55.44
2023-09-15T13:38:37.873Z,55.34
2023-09-15T13:41:06.361Z,54.38
2023-09-15T13:43:33.549Z,54.33
2023-09-15T13:46:01.042Z,55.61
2023-09-15T13:48:28.264Z,56.01
2023-09-15T13:50:55.586Z,57.22
2023-09-15T13:53:24.903Z,56.29
2023-09-15T13:55:54.184Z,57.19
2023-09-15T13:58:21.268Z,56.53
2023-09-15T14:00:59.536Z,55.57
2023-09-15T14:03:27.172Z,54.46
2023-09-15T14:05:54.754Z,55.76
2023-09-15T14:08:21.784Z,54.20
2023-09-15T14:10:49.238Z,53.05
2023-09-15T14:13:17.222Z,53.76
2023-09-15T14:15:50.422Z,53.98
2023-09-15T14:18:17.754Z,54.84
2023-09-15T14:20:49.878Z,55.50
2023-09-15T14:23:19.842Z,55.58
2023-09-15T14:25:47.614Z,54.59
2023-09-15T14:28:14.798Z,54.54
2023-09-15T14:30:42.266Z,55.22
2023-09-15T14:33:09.779Z,55.19
2023-09-15T14:35:39.591Z,54.91
2023-09-15T14:38:08.925Z,55.74
2023-09-15T14:40:36.377Z,56.68
2023-09-15T14:43:04.011Z,57.88
2023-09-15T14:45:32.381Z,57.33
2023-09-15T14:48:04.343Z,57.01
2023-09-15T14:50:32.265Z,56.71
2023-09-15T14:53:01.737Z,56.99
2023-09-15T14:55:32.159Z,56.51
2023-09-15T14:57:59.095Z,56.36
2023-09-15T15:00:26.581Z,56.30
2023-09-15T15:02:53.857Z,57.20
2023-09-15T15:05:21.391Z,58.55
2023-09-15T15:07:48.535Z,57.75
2023-09-15T15:10:15.887Z,56.93
2023-09-15T15:12:43.069Z,56.48
2023-09-15T15:15:14.883Z,55.53
2023-09-15T15:17:42.792Z,55.20
2023-09-15T15:20:10.981Z,57.11
2023-09-15T15:22:37.986Z,57.31
2023-09-15T15:25:07.942Z,56.94
2023-09-15T15:27:38.405Z,57.57
2023-09-15T15:30:06.239Z,58.06
2023-09-15T15:32:33.434Z,56.60
2023-09-15T15:35:01.161Z,56.91
2023-09-15T15:37:28.528Z,57.75
2023-09-15T15:39:56.202Z,57.85
2023-09-15T15:42:23.540Z,59.69
2023-09-15T15:44:54.247Z,59.19
2023-09-15T15:47:23.785Z,59.94
2023-09-15T15:49:53.204Z,60.45
2023-09-15T15:52:20.525Z,60.91
2023-09-15T15:54:47.977Z,61.10
2023-09-15T15:57:15.516Z,61.94
2023-09-15T15:59:45.300Z,61.35
2023-09-15T16:02:14.634Z,62.65
2023-09-15T16:04:42.398Z,62.98
2023-09-15T16:07:09.626Z,62.65
2023-09-15T16:09:37.352Z,62.71
2023-09-15T16:12:06.831Z,62.35
2023-09-15T16:14:34.403Z,63.69
2023-09-15T16:17:01.607Z,64.86
2023-09-15T16:19:31.365Z,66.64
2023-09-15T16:22:01.610Z,67.68
2023-09-15T16:24:29.262Z,68.28
2023-09-15T16:26:56.586Z,68.95
2023-09-15T16:29:26.332Z,69.61
2023-09-15T16:31:53.590Z,70.56
2023-09-15T16:34:21.250Z,72.78
2023-09-15T16:36:50.976Z,74.66
2023-09-15T16:39:18.615Z,77.08
2023-09-15T16:41:45.858Z,78.86
2023-09-15T16:44:13.417Z,81.54
2023-09-15T16:46:40.671Z,84.34
2023-09-15T16:49:08.772Z,85.87
2023-09-15T16:51:36.341Z,87.92
2023-09-15T16:54:04.330Z,89.46
2023-09-15T16:56:34.253Z,92.77
2023-09-15T16:59:01.927Z,94.00
2023-09-15T17:01:29.447Z,95.79
2023-09-15T17:03:57.081Z,97.17
2023-09-15T17:06:24.533Z,99.02
2023-09-15T17:08:55.316Z,100.00
2023-09-15T17:11:22.816Z,100.00
2023-09-15T17:13:50.588Z,100.00
2023-09-15T17:16:21.474Z,100.00
2023-09-15T17:18:50.255Z,100.00
2023-09-15T17:21:20.363Z,100.00
2023-09-15T17:23:48.513Z,100.00
2023-09-15T17:26:16.212Z,100.00
2023-09-15T17:28:46.417Z,100.00
2023-09-15T17:31:14.568Z,100.00
2023-09-15T17:33:42.435Z,100.00
2023-09-15T17:36:09.542Z,100.00
2023-09-15T17:38:41.777Z,100.00
2023-09-15T17:41:10.036Z,100.00
2023-09-15T17:43:43.185Z,100.00
2023-09-15T17:46:14.655Z,100.00
2023-09-15T17:48:42.815Z,100.00
2023-09-15T17:51:10.917Z,100.00
2023-09-15T17:53:40.458Z,100.00
2023-09-15T17:56:08.482Z,100.00
2023-09-15T17:58:40.798Z,100.00
2023-09-15T18:01:10.907Z,100.00
2023-09-15T18:03:39.666Z,100.00
2023-09-15T18:06:22.631Z,100.00
2023-09-15T18:08:51.467Z,100.00
2023-09-15T18:11:19.090Z,100.00
2023-09-15T18:13:49.007Z,100.00
2023-09-15T18:16:18.081Z,100.00
2023-09-15T18:18:46.423Z,100.00
2023-09-15T18:21:14.238Z,100.00
2023-09-15T18:23:44.720Z,100.00
2023-09-15T18:26:12.269Z,100.00
2023-09-15T18:28:45.277Z,100.00
2023-09-15T18:31:12.810Z,100.00
2023-09-15T18:33:42.717Z,100.00
2023-09-15T18:36:10.933Z,100.00
2023-09-15T18:38:38.859Z,100.00
2023-09-15T18:41:08.374Z,100.00
2023-09-15T18:43:39.682Z,100.00
2023-09-15T18:46:07.412Z,100.00
2023-09-15T18:48:37.377Z,100.00
2023-09-15T18:51:08.347Z,100.00
2023-09-15T18:53:39.963Z,100.00
2023-09-15T18:56:09.666Z,100.00
2023-09-15T18:58:40.327Z,100.00
2023-09-15T19:01:09.784Z,100.00
2023-09-15T19:03:38.123Z,100.00
2023-09-15T19:06:06.029Z,100.00
2023-09-15T19:08:34.224Z,100.00
2023-09-15T19:11:04.656Z,100.00
2023-09-15T19:13:33.794Z,100.00
2023-09-15T19:16:01.963Z,100.00
2023-09-15T19:18:30.394Z,100.00
2023-09-15T19:20:59.354Z,100.00
2023-09-15T19:23:28.650Z,100.00
2023-09-15T19:26:00.674Z,100.00
2023-09-15T19:28:30.100Z,100.00
2023-09-15T19:30:58.555Z,100.00
2023-09-15T19:33:27.061Z,100.00
2023-09-15T19:35:57.690Z,100.00
2023-09-15T19:38:26.299Z,100.00
2023-09-15T19:40:54.170Z,100.00
2023-09-15T19:43:23.097Z,100.00
2023-09-15T19:45:54.263Z,100.00
2023-09-15T19:48:22.289Z,100.00
2023-09-15T19:50:51.027Z,100.00
2023-09-15T19:53:19.521Z,100.00
2023-09-15T19:55:47.170Z,100.00
2023-09-15T19:58:16.451Z,100.00
2023-09-15T20:00:44.718Z,100.00
2023-09-15T20:03:12.872Z,100.00
2023-09-15T20:05:45.684Z,100.00
2023-09-15T20:08:14.635Z,100.00
2023-09-15T20:10:42.327Z,100.00
2023-09-15T20:13:11.774Z,100.00
2023-09-15T20:15:40.722Z,100.00
2023-09-15T20:18:08.811Z,100.00
2023-09-15T20:20:39.423Z,100.00
2023-09-15T20:23:19.508Z,100.00
2023-09-15T20:25:47.067Z,100.00
2023-09-15T20:28:18.117Z,100.00
2023-09-15T20:30:46.362Z,100.00
2023-09-15T20:33:14.351Z,100.00
2023-09-15T20:35:45.080Z,100.00
2023-09-15T20:38:15.490Z,100.00
2023-09-15T20:40:44.687Z,100.00
2023-09-15T20:43:12.843Z,100.00
2023-09-15T20:45:40.564Z,100.00
2023-09-15T20:48:10.405Z,100.00
2023-09-15T20:50:37.920Z,100.00
2023-09-15T20:53:07.882Z,100.00
2023-09-15T20:55:36.793Z,100.00
2023-09-15T20:58:06.794Z,100.00
2023-09-15T21:00:34.302Z,100.00
2023-09-15T21:03:04.255Z,100.00
2023-09-15T21:05:31.229Z,100.00
2023-09-15T21:07:58.551Z,100.00
2023-09-15T21:10:25.657Z,100.00
2023-09-15T21:12:55.746Z,100.00
2023-09-15T21:15:22.786Z,100.00
2023-09-15T21:17:53.126Z,100.00
2023-09-15T21:20:20.316Z,100.00
2023-09-15T21:22:51.957Z,100.00
2023-09-15T21:25:19.010Z,100.00
2023-09-15T21:27:46.274Z,100.00
2023-09-15T21:30:13.471Z,100.00
2023-09-15T21:32:40.825Z,100.00
2023-09-15T21:35:08.053Z,100.00
2023-09-15T21:37:35.345Z,100.00
2023-09-15T21:40:02.357Z,100.00
2023-09-15T21:42:29.840Z,100.00
2023-09-15T21:44:57.554Z,100.00
2023-09-15T21:47:24.929Z,100.00
2023-09-15T21:49:55.830Z,100.00
2023-09-15T21:52:23.163Z,100.00
2023-09-15T21:54:50.509Z,100.00
2023-09-15T21:57:19.446Z,100.00
2023-09-15T21:59:48.614Z,100.00
2023-09-15T22:02:20.439Z,100.00
2023-09-15T22:04:52.625Z,100.00
2023-09-15T22:07:21.531Z,100.00
2023-09-15T22:09:49.611Z,100.00
2023-09-15T22:12:17.597Z,100.00
2023-09-15T22:14:48.585Z,100.00
2023-09-15T22:17:27.026Z,100.00
2023-09-15T22:19:54.103Z,100.00
2023-09-15T22:22:21.365Z,100.00
2023-09-15T22:24:48.318Z,100.00
2023-09-15T22:27:15.683Z,100.00
2023-09-15T22:29:42.655Z,100.00
2023-09-15T22:32:12.818Z,100.00
2023-09-15T22:34:43.153Z,100.00
2023-09-15T22:37:12.814Z,100.00
2023-09-15T22:39:44.704Z,100.00
2023-09-15T22:42:12.482Z,100.00
2023-09-15T22:44:41.937Z,100.00
2023-09-15T22:47:13.950Z,100.00
2023-09-15T22:49:41.094Z,100.00
2023-09-15T22:52:09.216Z,100.00
2023-09-15T22:54:43.357Z,100.00
2023-09-15T22:57:11.097Z,100.00
2023-09-15T22:59:38.102Z,100.00
2023-09-15T23:02:06.028Z,100.00
2023-09-15T23:04:33.755Z,100.00
2023-09-15T23:07:01.473Z,100.00
2023-09-15T23:09:31.446Z,100.00
2023-09-15T23:12:01.084Z,100.00
2023-09-15T23:14:28.546Z,100.00
2023-09-15T23:16:55.944Z,100.00
2023-09-15T23:19:22.898Z,100.00
2023-09-15T23:21:50.185Z,100.00
2023-09-15T23:24:23.322Z,100.00
2023-09-15T23:26:50.714Z,100.00
2023-09-15T23:29:17.972Z,100.00
2023-09-15T23:31:45.282Z,100.00
2023-09-15T23:34:12.584Z,100.00
2023-09-15T23:36:41.856Z,100.00
2023-09-15T23:39:09.357Z,100.00
2023-09-15T23:41:36.610Z,100.00
2023-09-15T23:44:03.576Z,100.00
2023-09-15T23:46:31.766Z,100.00
2023-09-15T23:48:58.818Z,100.00
2023-09-15T23:51:28.658Z,100.00
2023-09-15T23:53:55.561Z,100.00
2023-09-15T23:56:27.931Z,100.00
2023-09-15T23:58:54.919Z,100.00
